createdAt,value
2022-08-24T00:02:38.110Z,14.9
2022-08-24T00:07:44.189Z,14.9
2022-08-24T00:12:50.290Z,14.9
2022-08-24T00:17:56.392Z,14.9
2022-08-24T00:23:02.479Z,14.8
2022-08-24T00:28:08.585Z,14.8
2022-08-24T00:33:13.682Z,14.7
2022-08-24T00:38:19.780Z,14.7
2022-08-24T00:43:25.902Z,14.6
2022-08-24T00:48:31.968Z,14.6
2022-08-24T00:53:38.071Z,14.5
2022-08-24T00:58:44.150Z,14.5
2022-08-24T01:03:50.249Z,14.4
2022-08-24T01:08:56.353Z,14.4
2022-08-24T01:14:02.445Z,14.4
2022-08-24T01:19:08.539Z,14.4
2022-08-24T01:24:14.636Z,14.4
2022-08-24T01:29:20.724Z,14.2
2022-08-24T01:34:26.817Z,14.2
2022-08-24T01:39:31.943Z,14.2
2022-08-24T01:44:38.029Z,14.1
2022-08-24T01:49:44.128Z,14.1
2022-08-24T01:54:50.217Z,14
2022-08-24T01:59:56.303Z,14
2022-08-24T02:05:02.414Z,13.9
2022-08-24T02:10:07.531Z,13.8
2022-08-24T02:15:13.616Z,13.8
2022-08-24T02:20:19.712Z,13.8
2022-08-24T02:25:25.810Z,13.8
2022-08-24T02:30:31.899Z,13.8
2022-08-24T02:35:37.996Z,13.8
2022-08-24T02:40:44.107Z,13.7
2022-08-24T02:45:50.185Z,13.7
2022-08-24T02:50:56.283Z,13.8
2022-08-24T02:56:02.373Z,13.7
2022-08-24T03:01:08.481Z,13.7
2022-08-24T03:06:14.581Z,13.6
2022-08-24T03:11:20.673Z,13.5
2022-08-24T03:16:25.784Z,13.5
2022-08-24T03:21:31.862Z,13.6
2022-08-24T03:26:37.965Z,13.6
2022-08-24T03:31:44.059Z,13.5
2022-08-24T03:36:50.161Z,13.4
2022-08-24T03:41:56.262Z,13.4
2022-08-24T03:47:02.351Z,13.3
2022-08-24T03:52:08.449Z,13.3
2022-08-24T03:57:14.537Z,13.4
2022-08-24T04:02:20.643Z,13.3
2022-08-24T04:07:26.731Z,13.3
2022-08-24T04:12:32.832Z,13.2
2022-08-24T04:17:38.928Z,13.1
2022-08-24T04:22:44.030Z,13.2
2022-08-24T04:27:50.136Z,13.3
2022-08-24T04:32:56.221Z,13.3
2022-08-24T04:38:02.312Z,13.4
2022-08-24T04:43:08.421Z,13.4
2022-08-24T04:48:14.531Z,13.4
2022-08-24T04:53:20.597Z,13.4
2022-08-24T04:58:26.688Z,13.4
2022-08-24T05:03:32.788Z,13.5
2022-08-24T05:08:38.887Z,13.5
2022-08-24T05:13:44.980Z,13.7
2022-08-24T05:18:51.070Z,13.9
2022-08-24T05:23:57.172Z,14.1
2022-08-24T05:29:02.288Z,14.2
2022-08-24T05:34:08.373Z,14.3
2022-08-24T05:39:14.477Z,14.5
2022-08-24T05:44:20.560Z,14.5
2022-08-24T05:49:26.651Z,14.7
2022-08-24T05:54:32.762Z,14.9
2022-08-24T05:59:38.840Z,15.1
2022-08-24T06:04:44.942Z,15.3
2022-08-24T06:09:51.039Z,15.5
2022-08-24T06:14:57.134Z,15.8
2022-08-24T06:20:03.234Z,16.1
2022-08-24T06:25:09.313Z,16.3
2022-08-24T06:30:15.409Z,16.5
2022-08-24T06:35:20.539Z,16.8
2022-08-24T06:40:26.612Z,17
2022-08-24T06:45:32.706Z,17.3
2022-08-24T06:50:38.805Z,17.7
2022-08-24T06:55:44.912Z,18.2
2022-08-24T07:00:50.993Z,18.5
2022-08-24T07:05:57.086Z,18.8
2022-08-24T07:11:03.175Z,19.1
2022-08-24T07:16:09.279Z,19.3
2022-08-24T07:21:15.378Z,19.6
2022-08-24T07:26:21.481Z,19.8
2022-08-24T07:31:27.570Z,20
2022-08-24T07:36:33.691Z,20.2
2022-08-24T07:41:38.772Z,20.4
2022-08-24T07:46:44.887Z,20.7
2022-08-24T07:51:50.947Z,21
2022-08-24T07:56:57.046Z,21.2
2022-08-24T08:02:03.156Z,21.4
2022-08-24T08:07:09.275Z,21.7
2022-08-24T08:12:15.372Z,22
2022-08-24T08:17:21.447Z,22.3
2022-08-24T08:22:27.547Z,22.5
2022-08-24T08:27:33.641Z,22.8
2022-08-24T08:32:39.743Z,23.2
2022-08-24T08:37:45.841Z,23.7
2022-08-24T08:42:51.946Z,25.2
2022-08-24T08:47:57.061Z,26.7
2022-08-24T08:53:03.140Z,28.2
2022-08-24T08:58:09.240Z,29.2
2022-08-24T09:03:15.342Z,29.9
2022-08-24T09:08:21.418Z,30.7
2022-08-24T09:13:27.522Z,30.2
2022-08-24T09:18:33.626Z,31.5
2022-08-24T09:23:39.714Z,32.6
2022-08-24T09:28:45.816Z,30.7
2022-08-24T09:33:51.885Z,28.5
2022-08-24T09:38:57.982Z,29.7
2022-08-24T09:44:04.090Z,31.5
2022-08-24T09:49:10.197Z,33
2022-08-24T09:54:15.283Z,34.2
2022-08-24T09:59:21.395Z,35.2
2022-08-24T10:04:27.484Z,34.8
2022-08-24T10:09:33.590Z,34.3
2022-08-24T10:14:39.694Z,35.3
2022-08-24T10:19:45.771Z,35.9
2022-08-24T10:24:51.861Z,34.6
2022-08-24T10:29:57.988Z,35.4
2022-08-24T10:35:04.086Z,35.8
2022-08-24T10:40:10.185Z,36.9
2022-08-24T10:45:16.272Z,37.4
2022-08-24T10:50:22.379Z,37.4
2022-08-24T10:55:28.463Z,37
2022-08-24T11:00:33.587Z,36
2022-08-24T11:05:39.673Z,34.7
2022-08-24T11:10:45.787Z,30.6
2022-08-24T11:15:51.864Z,28.9
2022-08-24T11:20:57.956Z,28.4
2022-08-24T11:26:04.065Z,29.9
2022-08-24T11:31:10.195Z,28.6
2022-08-24T11:36:16.245Z,29.7
2022-08-24T11:41:22.342Z,28.6
2022-08-24T11:46:28.436Z,32.4
2022-08-24T11:51:34.521Z,33.9
2022-08-24T11:56:40.651Z,35.2
2022-08-24T12:01:46.728Z,33.9
2022-08-24T12:06:51.851Z,33.2
2022-08-24T12:11:57.931Z,32.6
2022-08-24T12:17:04.025Z,32.4
2022-08-24T12:22:10.130Z,31
2022-08-24T12:27:16.210Z,30.4
2022-08-24T12:32:22.335Z,30.2
2022-08-24T12:37:28.408Z,29.4
2022-08-24T12:42:34.498Z,28.9
2022-08-24T12:47:40.637Z,28.8
2022-08-24T12:52:46.699Z,28.7
2022-08-24T12:57:52.797Z,28.7
2022-08-24T13:02:58.891Z,29
2022-08-24T13:08:04.984Z,28.8
2022-08-24T13:13:10.115Z,28.4
2022-08-24T13:18:16.184Z,28.3
2022-08-24T13:23:22.283Z,28.5
2022-08-24T13:28:28.378Z,28.5
2022-08-24T13:33:34.479Z,28.6
2022-08-24T13:38:40.591Z,28.8
2022-08-24T13:43:46.666Z,28.5
2022-08-24T13:48:52.759Z,28.4
2022-08-24T13:53:58.851Z,28.6
2022-08-24T13:59:04.958Z,28.6
2022-08-24T14:04:11.058Z,28.6
2022-08-24T14:09:17.154Z,28.4
2022-08-24T14:14:23.234Z,28.4
2022-08-24T14:19:28.349Z,28.4
2022-08-24T14:24:34.446Z,28.5
2022-08-24T14:29:40.538Z,28.6
2022-08-24T14:34:46.633Z,28.9
2022-08-24T14:39:52.735Z,29.1
2022-08-24T14:44:58.847Z,29.2
2022-08-24T14:50:04.933Z,29
2022-08-24T14:55:11.030Z,28.7
2022-08-24T15:00:17.121Z,28.6
2022-08-24T15:05:23.194Z,28.4
2022-08-24T15:10:29.319Z,28.3
2022-08-24T15:15:35.393Z,28.5
2022-08-24T15:20:41.500Z,28.4
2022-08-24T15:25:46.599Z,28.2
2022-08-24T15:30:52.706Z,28.1
2022-08-24T15:35:58.800Z,28.2
2022-08-24T15:41:04.904Z,28.1
2022-08-24T15:46:11.007Z,28.1
2022-08-24T15:51:17.073Z,28
2022-08-24T15:56:23.176Z,28
2022-08-24T16:01:29.281Z,28
2022-08-24T16:06:35.366Z,27.9
2022-08-24T16:11:41.463Z,27.8
2022-08-24T16:16:47.555Z,27.8
2022-08-24T16:21:53.662Z,27.7
2022-08-24T16:26:59.746Z,27.6
2022-08-24T16:32:04.859Z,27.4
2022-08-24T16:37:10.955Z,27.4
2022-08-24T16:42:17.068Z,27.4
2022-08-24T16:47:23.141Z,27.4
2022-08-24T16:52:29.240Z,27.2
2022-08-24T16:57:35.336Z,27.3
2022-08-24T17:02:41.435Z,27.3
2022-08-24T17:07:47.526Z,27.3
2022-08-24T17:17:59.708Z,27
2022-08-24T17:23:05.813Z,26.9
2022-08-24T17:28:11.903Z,27
2022-08-24T17:33:17.989Z,26.8
2022-08-24T17:38:23.105Z,26.6
2022-08-24T17:43:29.209Z,26.5
2022-08-24T17:48:35.297Z,26.3
2022-08-24T17:53:41.383Z,26
2022-08-24T17:58:47.482Z,25.7
2022-08-24T18:03:53.574Z,25.3
2022-08-24T18:08:59.663Z,24.9
2022-08-24T18:14:05.766Z,24.5
2022-08-24T18:19:11.853Z,24.1
2022-08-24T18:24:17.969Z,23.8
2022-08-24T18:29:24.044Z,23.5
2022-08-24T18:34:30.145Z,23.2
2022-08-24T18:39:36.236Z,23
2022-08-24T18:44:41.346Z,22.8
2022-08-24T18:49:47.447Z,22.6
2022-08-24T18:54:53.546Z,22.4
2022-08-24T18:59:59.647Z,22.2
2022-08-24T19:05:05.742Z,22.1
2022-08-24T19:10:11.815Z,22
2022-08-24T19:15:16.938Z,21.9
2022-08-24T19:20:23.037Z,21.8
2022-08-24T19:25:29.123Z,21.6
2022-08-24T19:30:35.208Z,21.5
2022-08-24T19:35:41.304Z,21.4
2022-08-24T19:40:47.409Z,21.3
2022-08-24T19:45:53.492Z,21.3
2022-08-24T19:50:59.587Z,21.2
2022-08-24T19:56:05.691Z,21.1
2022-08-24T20:01:11.779Z,21
2022-08-24T20:06:17.878Z,21
2022-08-24T20:11:23.973Z,20.9
2022-08-24T20:16:30.056Z,20.8
2022-08-24T20:21:35.160Z,20.8
2022-08-24T20:26:41.274Z,20.8
2022-08-24T20:31:47.364Z,20.7
2022-08-24T20:36:53.461Z,20.6
2022-08-24T20:41:59.543Z,20.6
2022-08-24T20:47:05.634Z,20.5
2022-08-24T20:52:11.742Z,20.4
2022-08-24T20:57:17.819Z,20.3
2022-08-24T21:02:23.923Z,20.3
2022-08-24T21:07:30.021Z,20.3
2022-08-24T21:12:36.115Z,20.4
2022-08-24T21:17:42.218Z,20.4
2022-08-24T21:22:48.334Z,20.5
2022-08-24T21:27:53.403Z,20.6
2022-08-24T21:32:59.502Z,20.6
2022-08-24T21:38:05.603Z,20.6
2022-08-24T21:43:11.699Z,20.5
2022-08-24T21:48:17.795Z,20.4
2022-08-24T21:53:23.884Z,20.3
2022-08-24T21:58:29.965Z,20.3
2022-08-24T22:03:36.065Z,20.2
2022-08-24T22:08:42.158Z,20.1
2022-08-24T22:13:48.268Z,20
2022-08-24T22:18:54.353Z,19.9
2022-08-24T22:24:00.460Z,19.9
2022-08-24T22:29:06.553Z,19.9
2022-08-24T22:34:11.645Z,19.9
2022-08-24T22:39:17.748Z,19.8
2022-08-24T22:44:23.826Z,19.8
2022-08-24T22:49:29.941Z,19.8
2022-08-24T22:54:36.038Z,19.7
2022-08-24T22:59:42.114Z,19.8
2022-08-24T23:04:48.212Z,19.8
2022-08-24T23:09:54.304Z,20
2022-08-24T23:15:00.391Z,20.1
2022-08-24T23:20:06.487Z,20
2022-08-24T23:25:12.587Z,20
2022-08-24T23:30:18.668Z,19.9
2022-08-24T23:35:24.783Z,19.9
2022-08-24T23:40:29.886Z,19.8
2022-08-24T23:45:35.988Z,19.8
2022-08-24T23:50:42.061Z,19.8
2022-08-24T23:55:48.159Z,19.7
